createdAt,value
2022-09-16T00:00:17.659Z,6.85
2022-09-16T00:02:40.861Z,5.43
2022-09-16T00:05:06.025Z,5.22
2022-09-16T00:07:30.652Z,5.47
2022-09-16T00:09:53.899Z,4.63
2022-09-16T00:12:17.031Z,5.03
2022-09-16T00:14:40.491Z,5.35
2022-09-16T00:17:03.649Z,4.57
2022-09-16T00:19:26.826Z,5.07
2022-09-16T00:21:51.735Z,6.53
2022-09-16T00:24:15.703Z,6.00
2022-09-16T00:26:39.966Z,6.57
2022-09-16T00:31:26.261Z,6.63
2022-09-16T00:33:49.463Z,5.22
2022-09-16T00:36:13.969Z,5.63
2022-09-16T00:38:38.562Z,5.55
2022-09-16T00:41:01.711Z,4.45
2022-09-16T00:43:24.972Z,5.03
2022-09-16T00:45:49.434Z,4.10
2022-09-16T00:48:15.732Z,5.53
2022-09-16T00:50:40.679Z,3.53
2022-09-16T00:53:03.846Z,4.13
2022-09-16T00:55:29.304Z,4.50
2022-09-16T00:57:52.487Z,3.80
2022-09-16T01:00:16.465Z,3.63
2022-09-16T01:02:39.659Z,4.25
2022-09-16T01:05:05.667Z,4.50
2022-09-16T01:07:32.678Z,3.83
2022-09-16T01:09:56.865Z,5.13
2022-09-16T01:12:21.420Z,4.38
2022-09-16T01:14:58.276Z,4.13
2022-09-16T01:17:28.140Z,5.97
2022-09-16T01:20:03.891Z,4.38
2022-09-16T01:22:35.790Z,4.35
2022-09-16T01:25:02.024Z,4.50
2022-09-16T01:27:50.545Z,5.07
2022-09-16T01:30:27.794Z,4.97
2022-09-16T01:32:57.680Z,4.82
2022-09-16T01:35:24.493Z,4.50
2022-09-16T01:37:51.525Z,3.92
2022-09-16T01:40:17.802Z,5.07
2022-09-16T01:42:42.987Z,5.82
2022-09-16T01:45:08.352Z,4.25
2022-09-16T01:47:35.060Z,4.32
2022-09-16T01:50:01.751Z,4.45
2022-09-16T01:52:26.402Z,4.22
2022-09-16T01:54:51.237Z,4.32
2022-09-16T01:57:17.700Z,3.97
2022-09-16T01:59:43.353Z,5.68
2022-09-16T02:02:09.080Z,5.47
2022-09-16T02:04:34.247Z,4.43
2022-09-16T02:06:58.831Z,4.15
2022-09-16T02:09:22.845Z,3.97
2022-09-16T02:11:46.126Z,4.15
2022-09-16T02:14:11.367Z,5.17
2022-09-16T02:16:37.001Z,4.45
2022-09-16T02:19:02.949Z,6.22
2022-09-16T02:21:26.663Z,4.93
2022-09-16T02:23:52.285Z,5.68
2022-09-16T02:26:17.547Z,4.75
2022-09-16T02:28:42.669Z,4.85
2022-09-16T02:31:07.805Z,5.25
2022-09-16T02:33:32.936Z,5.20
2022-09-16T02:35:56.368Z,5.32
2022-09-16T02:38:21.737Z,5.37
2022-09-16T02:40:48.194Z,4.57
2022-09-16T02:43:11.407Z,4.82
2022-09-16T02:45:38.366Z,4.07
2022-09-16T02:48:03.238Z,3.97
2022-09-16T02:50:27.961Z,4.40
2022-09-16T02:52:54.028Z,4.03
2022-09-16T02:55:21.885Z,5.40
2022-09-16T02:57:46.474Z,3.67
2022-09-16T03:00:10.638Z,4.28
2022-09-16T03:02:34.350Z,5.00
2022-09-16T03:04:57.664Z,4.53
2022-09-16T03:07:20.842Z,4.88
2022-09-16T03:09:45.159Z,4.32
2022-09-16T03:14:53.218Z,4.22
2022-09-16T03:17:24.432Z,4.50
2022-09-16T03:19:51.412Z,4.07
2022-09-16T03:22:17.735Z,4.03
2022-09-16T03:24:47.296Z,4.93
2022-09-16T03:27:11.585Z,4.97
2022-09-16T03:29:36.372Z,4.57
2022-09-16T03:32:03.562Z,4.22
2022-09-16T03:34:28.229Z,4.55
2022-09-16T03:36:52.872Z,5.38
2022-09-16T03:39:16.054Z,4.38
2022-09-16T03:41:39.212Z,3.85
2022-09-16T03:44:04.272Z,4.65
2022-09-16T03:46:28.992Z,4.90
2022-09-16T03:48:53.676Z,4.75
2022-09-16T03:51:16.937Z,4.60
2022-09-16T03:53:40.190Z,4.65
2022-09-16T03:56:03.714Z,4.22
2022-09-16T03:58:26.846Z,4.20
2022-09-16T04:00:51.857Z,4.20
2022-09-16T04:03:15.046Z,4.95
2022-09-16T04:05:39.630Z,4.38
2022-09-16T04:08:03.059Z,5.38
2022-09-16T04:10:26.203Z,5.50
2022-09-16T04:12:49.413Z,4.78
2022-09-16T04:15:12.955Z,5.32
2022-09-16T04:17:36.152Z,6.00
2022-09-16T04:19:59.319Z,6.03
2022-09-16T04:22:23.873Z,5.47
2022-09-16T04:24:47.153Z,6.90
2022-09-16T04:27:10.325Z,6.72
2022-09-16T04:29:33.573Z,5.90
2022-09-16T04:31:56.798Z,6.13
2022-09-16T04:34:20.164Z,6.80
2022-09-16T04:36:43.338Z,7.25
2022-09-16T04:39:07.886Z,8.27
2022-09-16T04:41:31.059Z,8.25
2022-09-16T04:43:56.072Z,8.13
2022-09-16T04:46:19.522Z,7.60
2022-09-16T04:48:42.833Z,7.77
2022-09-16T04:51:07.141Z,6.85
2022-09-16T04:53:30.285Z,8.75
2022-09-16T04:55:54.814Z,7.20
2022-09-16T04:58:17.989Z,6.47
2022-09-16T05:00:41.226Z,9.20
2022-09-16T05:03:04.409Z,7.95
2022-09-16T05:05:27.781Z,7.70
2022-09-16T05:07:50.930Z,9.00
2022-09-16T05:10:14.293Z,7.32
2022-09-16T05:12:38.797Z,8.23
2022-09-16T05:15:01.990Z,9.75
2022-09-16T05:17:49.417Z,10.52
2022-09-16T05:20:08.938Z,12.68
2022-09-16T05:22:32.120Z,12.23
2022-09-16T05:24:55.230Z,12.82
2022-09-16T05:27:18.465Z,11.70
2022-09-16T05:29:43.019Z,11.35
2022-09-16T05:32:06.379Z,13.52
2022-09-16T05:34:29.805Z,12.50
2022-09-16T05:36:54.170Z,12.70
2022-09-16T05:41:47.162Z,11.73
2022-09-16T05:44:10.331Z,13.90
2022-09-16T05:46:35.158Z,11.95
2022-09-16T05:48:58.303Z,12.80
2022-09-16T05:51:22.370Z,12.02
2022-09-16T05:53:45.786Z,13.25
2022-09-16T05:56:10.103Z,14.00
2022-09-16T06:00:59.823Z,12.63
2022-09-16T06:03:24.425Z,10.13
2022-09-16T06:05:47.563Z,9.95
2022-09-16T06:08:10.834Z,11.10
2022-09-16T06:10:37.999Z,12.50
2022-09-16T06:13:01.136Z,12.40
2022-09-16T06:15:24.459Z,10.00
2022-09-16T06:17:47.628Z,10.13
2022-09-16T06:20:14.789Z,10.00
2022-09-16T06:22:37.935Z,9.38
2022-09-16T06:25:01.178Z,9.48
2022-09-16T06:27:24.342Z,8.27
2022-09-16T06:29:47.534Z,10.35
2022-09-16T06:32:10.677Z,8.88
2022-09-16T06:34:33.874Z,9.07
2022-09-16T06:36:58.358Z,9.55
2022-09-16T06:39:23.078Z,7.20
2022-09-16T06:41:46.246Z,8.90
2022-09-16T06:44:09.501Z,10.02
2022-09-16T06:46:32.705Z,8.65
2022-09-16T06:48:58.701Z,6.95
2022-09-16T06:51:24.687Z,9.75
2022-09-16T06:56:14.102Z,6.90
2022-09-16T06:58:37.416Z,8.98
2022-09-16T07:01:00.758Z,6.28
2022-09-16T07:03:23.889Z,6.40
2022-09-16T07:05:56.997Z,4.80
2022-09-16T07:08:20.217Z,5.10
2022-09-16T07:10:44.767Z,6.10
2022-09-16T07:13:07.976Z,5.65
2022-09-16T07:15:31.167Z,4.63
2022-09-16T07:17:55.220Z,5.85
2022-09-16T07:20:18.459Z,6.78
2022-09-16T07:22:41.613Z,5.82
2022-09-16T07:25:05.205Z,5.35
2022-09-16T07:27:29.845Z,6.07
2022-09-16T07:29:53.895Z,7.35
2022-09-16T07:32:17.109Z,6.25
2022-09-16T07:34:40.421Z,7.18
2022-09-16T07:37:03.617Z,4.97
2022-09-16T07:39:27.190Z,7.03
2022-09-16T07:41:50.414Z,7.20
2022-09-16T07:44:17.004Z,5.80
2022-09-16T07:46:40.192Z,6.57
2022-09-16T07:49:05.677Z,4.53
2022-09-16T07:53:54.861Z,5.45
2022-09-16T07:56:18.857Z,7.05
2022-09-16T07:58:42.017Z,6.78
2022-09-16T08:01:07.993Z,4.88
2022-09-16T08:03:31.199Z,5.03
2022-09-16T08:05:54.409Z,4.43
2022-09-16T08:08:17.582Z,5.22
2022-09-16T08:10:41.333Z,6.68
2022-09-16T08:13:04.566Z,6.70
2022-09-16T08:15:27.763Z,7.93
2022-09-16T08:17:52.404Z,5.88
2022-09-16T08:20:15.957Z,4.60
2022-09-16T08:22:39.119Z,5.03
2022-09-16T08:25:02.371Z,5.95
2022-09-16T08:27:25.578Z,5.57
2022-09-16T08:29:49.016Z,6.90
2022-09-16T08:32:12.218Z,4.50
2022-09-16T08:34:36.729Z,4.95
2022-09-16T08:37:00.045Z,6.30
2022-09-16T08:39:23.184Z,4.20
2022-09-16T08:42:03.479Z,4.45
2022-09-16T08:44:32.266Z,5.30
2022-09-16T08:46:57.326Z,4.18
2022-09-16T08:49:26.876Z,6.07
2022-09-16T08:51:51.466Z,5.88
2022-09-16T08:54:19.546Z,4.80
2022-09-16T08:56:45.004Z,6.05
2022-09-16T08:59:24.640Z,5.70
2022-09-16T09:01:51.785Z,5.90
2022-09-16T09:04:15.382Z,4.18
2022-09-16T09:06:48.541Z,4.57
2022-09-16T09:09:31.472Z,5.78
2022-09-16T09:11:57.600Z,5.50
2022-09-16T09:14:29.507Z,5.68
2022-09-16T09:16:55.073Z,4.95
2022-09-16T09:19:29.205Z,4.72
2022-09-16T09:21:57.294Z,5.40
2022-09-16T09:24:29.577Z,7.00
2022-09-16T09:26:53.513Z,4.25
2022-09-16T09:29:27.770Z,4.25
2022-09-16T09:31:55.040Z,4.55
2022-09-16T09:34:26.647Z,5.85
2022-09-16T09:36:57.871Z,4.13
2022-09-16T09:39:32.612Z,4.03
2022-09-16T09:44:38.340Z,4.65
2022-09-16T09:47:04.190Z,5.00
2022-09-16T09:49:28.915Z,4.35
2022-09-16T09:51:54.903Z,3.25
2022-09-16T09:54:24.672Z,4.15
2022-09-16T09:56:49.203Z,4.60
2022-09-16T09:59:16.491Z,5.47
2022-09-16T10:01:39.679Z,3.95
2022-09-16T10:04:04.238Z,5.28
2022-09-16T10:06:29.027Z,5.00
2022-09-16T10:08:52.953Z,4.65
2022-09-16T10:11:17.857Z,5.07
2022-09-16T10:13:48.799Z,4.65
2022-09-16T10:16:15.225Z,4.07
2022-09-16T10:18:38.442Z,4.25
2022-09-16T10:21:04.801Z,5.05
2022-09-16T10:23:30.242Z,3.88
2022-09-16T10:26:05.352Z,5.40
2022-09-16T10:28:28.535Z,5.38
2022-09-16T10:30:54.408Z,3.95
2022-09-16T10:33:19.723Z,4.47
2022-09-16T10:35:42.947Z,4.45
2022-09-16T10:38:07.600Z,4.20
2022-09-16T10:40:30.886Z,4.00
2022-09-16T10:42:55.041Z,4.10
2022-09-16T10:45:24.245Z,4.22
2022-09-16T10:47:51.465Z,3.65
2022-09-16T10:50:17.622Z,5.05
2022-09-16T10:52:42.878Z,4.07
2022-09-16T10:55:13.082Z,3.05
2022-09-16T10:57:40.305Z,4.45
2022-09-16T11:00:09.729Z,3.38
2022-09-16T11:02:53.893Z,5.40
2022-09-16T11:05:21.603Z,3.77
2022-09-16T11:07:49.170Z,3.28
2022-09-16T11:10:16.961Z,4.57
2022-09-16T11:12:51.982Z,3.53
2022-09-16T11:15:22.156Z,4.13
2022-09-16T11:17:55.610Z,6.00
2022-09-16T11:20:34.348Z,3.85
2022-09-16T11:23:01.095Z,3.38
2022-09-16T11:25:46.077Z,4.63
2022-09-16T11:30:40.714Z,3.17
2022-09-16T11:35:58.481Z,3.70
2022-09-16T11:38:25.060Z,4.18
2022-09-16T11:40:49.020Z,4.35
2022-09-16T11:43:40.745Z,3.10
2022-09-16T11:46:06.830Z,3.90
2022-09-16T11:48:40.333Z,4.43
2022-09-16T11:51:07.353Z,4.07
2022-09-16T11:53:58.333Z,6.15
2022-09-16T11:56:26.863Z,4.10
2022-09-16T11:58:51.789Z,4.15
2022-09-16T12:01:20.914Z,4.63
2022-09-16T12:03:47.942Z,3.78
2022-09-16T12:06:12.765Z,4.65
2022-09-16T12:08:41.867Z,4.35
2022-09-16T12:11:06.938Z,4.93
2022-09-16T12:13:31.054Z,3.80
2022-09-16T12:15:55.535Z,4.20
2022-09-16T12:18:20.504Z,4.90
2022-09-16T12:20:46.553Z,4.93
2022-09-16T12:23:15.662Z,5.45
2022-09-16T12:25:45.456Z,4.38
2022-09-16T12:28:13.862Z,4.28
2022-09-16T12:30:38.089Z,4.57
2022-09-16T12:35:28.881Z,4.53
2022-09-16T12:37:54.560Z,5.40
2022-09-16T12:40:20.379Z,3.63
2022-09-16T12:43:02.564Z,4.30
2022-09-16T12:45:52.198Z,3.53
2022-09-16T12:48:25.422Z,6.32
2022-09-16T12:50:57.095Z,4.65
2022-09-16T12:53:51.018Z,4.50
2022-09-16T12:56:16.033Z,4.40
2022-09-16T12:58:50.185Z,3.47
2022-09-16T13:01:18.524Z,3.83
2022-09-16T13:03:43.034Z,4.43
2022-09-16T13:06:07.350Z,3.53
2022-09-16T13:11:25.601Z,3.90
2022-09-16T13:13:44.154Z,4.00
2022-09-16T13:16:08.280Z,3.75
2022-09-16T13:18:43.766Z,5.30
2022-09-16T13:21:08.309Z,2.83
2022-09-16T13:23:32.967Z,4.22
2022-09-16T13:25:59.631Z,4.15
2022-09-16T13:28:29.054Z,3.30
2022-09-16T13:30:52.371Z,3.50
2022-09-16T13:33:28.818Z,4.95
2022-09-16T13:36:05.165Z,4.63
2022-09-16T13:38:38.799Z,3.05
2022-09-16T13:41:03.425Z,3.13
2022-09-16T13:43:31.400Z,3.38
2022-09-16T13:46:02.462Z,2.75
2022-09-16T13:48:26.261Z,3.42
2022-09-16T13:50:53.025Z,3.95
2022-09-16T13:53:29.890Z,3.58
2022-09-16T13:55:53.037Z,2.90
2022-09-16T13:58:20.549Z,3.58
2022-09-16T14:00:48.835Z,3.13
2022-09-16T14:03:34.660Z,5.50
2022-09-16T14:06:06.830Z,3.08
2022-09-16T14:08:34.375Z,3.65
2022-09-16T14:10:59.354Z,3.55
2022-09-16T14:13:24.525Z,3.92
2022-09-16T14:15:49.399Z,3.80
2022-09-16T14:18:14.156Z,3.75
2022-09-16T14:20:37.413Z,4.15
2022-09-16T14:23:04.638Z,4.53
2022-09-16T14:25:32.152Z,4.28
2022-09-16T14:28:08.608Z,3.13
2022-09-16T14:30:33.342Z,4.43
2022-09-16T14:32:56.546Z,3.47
2022-09-16T14:35:21.023Z,3.20
2022-09-16T14:40:13.017Z,3.75
2022-09-16T14:42:36.309Z,3.58
2022-09-16T14:44:59.452Z,3.88
2022-09-16T14:47:39.805Z,2.85
2022-09-16T14:50:25.155Z,3.20
2022-09-16T14:52:54.494Z,3.97
2022-09-16T14:55:20.555Z,3.58
2022-09-16T14:57:43.841Z,4.18
2022-09-16T15:00:11.670Z,3.65
2022-09-16T15:02:38.923Z,3.72
2022-09-16T15:05:18.062Z,3.58
2022-09-16T15:07:50.863Z,3.60
2022-09-16T15:10:25.309Z,5.00
2022-09-16T15:12:52.939Z,3.25
2022-09-16T15:15:17.823Z,3.22
2022-09-16T15:17:42.405Z,4.25
2022-09-16T15:20:06.226Z,4.38
2022-09-16T15:22:29.450Z,5.55
2022-09-16T15:24:53.945Z,5.25
2022-09-16T15:27:22.316Z,4.50
2022-09-16T15:29:49.229Z,3.95
2022-09-16T15:32:24.173Z,3.88
2022-09-16T15:34:49.762Z,5.20
2022-09-16T15:37:30.625Z,4.00
2022-09-16T15:39:53.805Z,3.72
2022-09-16T15:42:18.963Z,3.38
2022-09-16T15:44:45.118Z,4.32
2022-09-16T15:47:19.969Z,4.40
2022-09-16T15:49:43.198Z,4.90
2022-09-16T15:52:09.393Z,3.63
2022-09-16T15:54:33.799Z,3.38
2022-09-16T15:57:02.137Z,4.15
2022-09-16T15:59:30.897Z,4.13
2022-09-16T16:01:55.247Z,3.97
2022-09-16T16:04:24.117Z,4.63
2022-09-16T16:06:52.608Z,4.22
2022-09-16T16:09:45.026Z,4.30
2022-09-16T16:12:10.139Z,4.20
2022-09-16T16:14:33.834Z,3.67
2022-09-16T16:17:12.247Z,4.20
2022-09-16T16:19:36.501Z,3.80
2022-09-16T16:22:00.371Z,4.53
2022-09-16T16:24:23.683Z,4.85
2022-09-16T16:26:48.232Z,3.42
2022-09-16T16:29:11.430Z,3.65
2022-09-16T16:31:35.363Z,4.88
2022-09-16T16:33:58.673Z,5.55
2022-09-16T16:36:22.190Z,5.03
2022-09-16T16:38:46.395Z,5.88
2022-09-16T16:43:34.052Z,4.40
2022-09-16T16:45:57.425Z,5.60
2022-09-16T16:48:20.742Z,5.93
2022-09-16T16:50:43.996Z,6.20
2022-09-16T16:53:07.469Z,7.72
2022-09-16T16:55:31.112Z,6.90
2022-09-16T16:57:54.350Z,7.05
2022-09-16T17:00:19.514Z,8.07
2022-09-16T17:02:42.671Z,7.22
2022-09-16T17:05:06.482Z,9.20
2022-09-16T17:07:30.169Z,8.50
2022-09-16T17:09:53.565Z,8.07
2022-09-16T17:12:18.084Z,7.20
2022-09-16T17:14:42.230Z,7.85
2022-09-16T17:17:06.830Z,6.97
2022-09-16T17:19:31.022Z,6.95
2022-09-16T17:24:18.045Z,8.38
2022-09-16T17:26:41.178Z,8.30
2022-09-16T17:29:11.712Z,5.95
2022-09-16T17:31:40.232Z,8.48
2022-09-16T17:34:06.377Z,7.40
2022-09-16T17:36:29.739Z,7.80
2022-09-16T17:38:57.362Z,6.20
2022-09-16T17:41:22.498Z,7.95
2022-09-16T17:43:46.002Z,9.10
2022-09-16T17:46:14.144Z,7.18
2022-09-16T17:48:38.073Z,6.00
2022-09-16T17:51:02.639Z,8.23
2022-09-16T17:53:26.201Z,7.10
2022-09-16T17:55:49.873Z,7.47
2022-09-16T17:58:13.022Z,7.30
2022-09-16T18:00:37.551Z,7.97
2022-09-16T18:03:00.821Z,6.63
2022-09-16T18:05:29.321Z,8.48
2022-09-16T18:07:54.561Z,6.72
2022-09-16T18:10:18.075Z,8.18
2022-09-16T18:12:41.255Z,6.88
2022-09-16T18:15:04.934Z,5.13
2022-09-16T18:17:28.437Z,7.68
2022-09-16T18:19:51.847Z,5.90
2022-09-16T18:22:15.374Z,7.20
2022-09-16T18:24:40.145Z,5.97
2022-09-16T18:27:03.429Z,6.95
2022-09-16T18:29:26.603Z,6.55
2022-09-16T18:31:49.955Z,7.72
2022-09-16T18:34:13.562Z,6.97
2022-09-16T18:36:37.777Z,5.50
2022-09-16T18:39:01.923Z,7.45
2022-09-16T18:41:27.278Z,5.90
2022-09-16T18:43:53.514Z,7.40
2022-09-16T18:46:17.892Z,8.10
2022-09-16T18:48:42.784Z,7.40
2022-09-16T18:51:06.440Z,6.28
2022-09-16T18:53:29.723Z,5.33
2022-09-16T18:55:53.972Z,6.18
2022-09-16T18:58:18.511Z,5.50
2022-09-16T19:00:41.959Z,6.65
2022-09-16T19:03:05.207Z,6.97
2022-09-16T19:05:28.715Z,5.32
2022-09-16T19:07:51.886Z,5.97
2022-09-16T19:10:15.098Z,7.00
2022-09-16T19:12:39.348Z,5.20
2022-09-16T19:15:04.190Z,5.85
2022-09-16T19:17:27.892Z,5.75
2022-09-16T19:19:52.180Z,5.78
2022-09-16T19:24:38.789Z,5.07
2022-09-16T19:27:02.193Z,5.30
2022-09-16T19:29:25.598Z,5.93
2022-09-16T19:31:51.986Z,5.78
2022-09-16T19:34:16.063Z,5.78
2022-09-16T19:36:39.514Z,5.20
2022-09-16T19:39:02.752Z,5.47
2022-09-16T19:41:28.225Z,5.07
2022-09-16T19:43:54.413Z,4.93
2022-09-16T19:46:19.369Z,6.30
2022-09-16T19:48:45.828Z,6.85
2022-09-16T19:51:10.682Z,5.75
2022-09-16T19:53:34.783Z,6.97
2022-09-16T19:58:21.942Z,4.80
2022-09-16T20:00:55.775Z,5.55
2022-09-16T20:03:19.374Z,7.43
2022-09-16T20:05:43.962Z,6.70
2022-09-16T20:08:07.375Z,5.93
2022-09-16T20:10:30.579Z,6.90
2022-09-16T20:12:58.683Z,5.55
2022-09-16T20:15:22.667Z,4.65
2022-09-16T20:17:45.893Z,5.78
2022-09-16T20:20:09.452Z,4.90
2022-09-16T20:22:34.081Z,4.78
2022-09-16T20:25:18.727Z,5.22
2022-09-16T20:27:40.493Z,4.65
2022-09-16T20:30:03.874Z,4.13
2022-09-16T20:32:27.157Z,4.22
2022-09-16T20:34:50.300Z,5.45
2022-09-16T20:37:13.541Z,4.05
2022-09-16T20:39:38.086Z,5.28
2022-09-16T20:42:01.274Z,5.03
2022-09-16T20:44:24.519Z,4.00
2022-09-16T20:46:48.978Z,3.78
2022-09-16T20:49:15.200Z,5.38
2022-09-16T20:51:38.518Z,4.35
2022-09-16T20:54:07.311Z,3.90
2022-09-16T20:56:38.012Z,4.85
2022-09-16T20:59:02.028Z,4.35
2022-09-16T21:01:25.970Z,5.28
2022-09-16T21:03:51.698Z,4.05
2022-09-16T21:06:15.769Z,6.22
2022-09-16T21:08:38.975Z,4.47
2022-09-16T21:11:05.592Z,6.30
2022-09-16T21:13:31.265Z,7.22
2022-09-16T21:15:57.554Z,6.40
2022-09-16T21:18:22.322Z,6.15
2022-09-16T21:20:45.571Z,6.20
2022-09-16T21:23:08.830Z,5.78
2022-09-16T21:25:32.942Z,5.97
2022-09-16T21:27:56.316Z,6.72
2022-09-16T21:30:20.843Z,5.53
2022-09-16T21:32:44.132Z,6.10
2022-09-16T21:35:08.037Z,6.05
2022-09-16T21:37:31.254Z,5.47
2022-09-16T21:39:54.499Z,5.68
2022-09-16T21:42:17.726Z,6.13
2022-09-16T21:44:40.918Z,7.20
2022-09-16T21:47:08.041Z,6.07
2022-09-16T21:49:32.655Z,5.85
2022-09-16T21:51:56.510Z,4.82
2022-09-16T21:54:20.588Z,5.45
2022-09-16T21:56:43.906Z,5.05
2022-09-16T21:59:07.334Z,6.05
2022-09-16T22:01:31.607Z,6.00
2022-09-16T22:06:19.575Z,3.85
2022-09-16T22:08:48.577Z,4.55
2022-09-16T22:11:13.590Z,3.63
2022-09-16T22:13:36.906Z,5.20
2022-09-16T22:16:00.231Z,4.70
2022-09-16T22:18:23.793Z,4.03
2022-09-16T22:20:48.519Z,4.13
2022-09-16T22:23:11.788Z,4.15
2022-09-16T22:25:36.172Z,3.78
2022-09-16T22:30:22.460Z,3.85
2022-09-16T22:32:45.713Z,4.82
2022-09-16T22:35:10.001Z,4.90
2022-09-16T22:37:34.595Z,5.78
2022-09-16T22:39:57.939Z,5.65
2022-09-16T22:42:21.194Z,4.55
2022-09-16T22:44:44.400Z,4.55
2022-09-16T22:47:07.827Z,4.28
2022-09-16T22:49:31.188Z,5.30
2022-09-16T22:51:54.421Z,4.65
2022-09-16T22:54:19.173Z,6.35
2022-09-16T22:56:42.640Z,6.43
2022-09-16T22:59:08.340Z,5.60
2022-09-16T23:01:32.987Z,4.43
2022-09-16T23:03:57.207Z,5.97
2022-09-16T23:08:45.371Z,5.30
2022-09-16T23:11:13.270Z,4.63
2022-09-16T23:13:42.057Z,4.45
2022-09-16T23:16:06.267Z,4.70
2022-09-16T23:18:29.589Z,5.95
2022-09-16T23:20:59.709Z,4.25
2022-09-16T23:23:23.032Z,4.30
2022-09-16T23:25:46.229Z,5.07
2022-09-16T23:28:10.897Z,3.63
2022-09-16T23:30:34.194Z,5.28
2022-09-16T23:32:57.512Z,5.15
2022-09-16T23:35:20.765Z,3.90
2022-09-16T23:37:44.053Z,5.22
2022-09-16T23:40:08.683Z,5.07
2022-09-16T23:42:31.977Z,5.65
2022-09-16T23:44:56.571Z,5.55
2022-09-16T23:47:19.868Z,6.20
2022-09-16T23:49:43.365Z,5.68
2022-09-16T23:52:06.558Z,4.43
2022-09-16T23:54:29.826Z,5.10
2022-09-16T23:56:53.005Z,5.22
2022-09-16T23:59:16.454Z,6.13
